sensor_id;sensor_type;location;lat;lon;timestamp;pressure;altitude;pressure_sealevel;temperature;humidity
12077;BME280;12420;42.676;23.262;2022-08-23T00:01:17;94052.44;;;19.33;100.00
12077;BME280;12420;42.676;23.262;2022-08-23T00:03:46;94078.81;;;19.49;100.00
12077;BME280;12420;42.676;23.262;2022-08-23T00:06:15;94074.78;;;19.52;100.00
12077;BME280;12420;42.676;23.262;2022-08-23T00:08:42;94081.28;;;19.55;100.00
12077;BME280;12420;42.676;23.262;2022-08-23T00:11:25;94077.59;;;19.52;100.00
12077;BME280;12420;42.676;23.262;2022-08-23T00:13:52;94088.16;;;19.64;100.00
12077;BME280;12420;42.676;23.262;2022-08-23T00:16:19;94057.00;;;19.38;100.00
12077;BME280;12420;42.676;23.262;2022-08-23T00:18:46;94071.84;;;19.50;100.00
12077;BME280;12420;42.676;23.262;2022-08-23T00:21:14;94097.31;;;19.64;100.00
12077;BME280;12420;42.676;23.262;2022-08-23T00:23:42;94041.16;;;19.21;100.00
12077;BME280;12420;42.676;23.262;2022-08-23T00:26:08;94089.00;;;19.66;100.00
12077;BME280;12420;42.676;23.262;2022-08-23T00:28:35;94078.81;;;19.71;100.00
12077;BME280;12420;42.676;23.262;2022-08-23T00:31:04;94078.25;;;19.63;100.00
12077;BME280;12420;42.676;23.262;2022-08-23T00:33:30;94073.34;;;19.51;100.00
12077;BME280;12420;42.676;23.262;2022-08-23T00:35:57;94090.22;;;19.63;100.00
12077;BME280;12420;42.676;23.262;2022-08-23T00:38:26;94073.78;;;19.48;100.00
12077;BME280;12420;42.676;23.262;2022-08-23T00:40:52;94048.19;;;19.32;100.00
12077;BME280;12420;42.676;23.262;2022-08-23T00:43:23;94087.63;;;19.56;100.00
12077;BME280;12420;42.676;23.262;2022-08-23T00:46:18;94061.81;;;19.47;100.00
12077;BME280;12420;42.676;23.262;2022-08-23T00:49:08;94087.75;;;19.58;100.00
12077;BME280;12420;42.676;23.262;2022-08-23T00:51:41;94041.38;;;19.35;100.00
12077;BME280;12420;42.676;23.262;2022-08-23T00:54:12;94077.88;;;19.57;100.00
12077;BME280;12420;42.676;23.262;2022-08-23T00:56:40;94084.06;;;19.55;100.00
12077;BME280;12420;42.676;23.262;2022-08-23T00:59:22;94089.97;;;19.59;100.00
12077;BME280;12420;42.676;23.262;2022-08-23T01:01:48;94074.25;;;19.44;100.00
12077;BME280;12420;42.676;23.262;2022-08-23T01:04:18;94090.94;;;19.64;100.00
12077;BME280;12420;42.676;23.262;2022-08-23T01:06:49;94096.03;;;19.56;100.00
12077;BME280;12420;42.676;23.262;2022-08-23T01:09:21;94091.53;;;19.72;100.00
12077;BME280;12420;42.676;23.262;2022-08-23T01:11:52;94053.59;;;19.40;100.00
12077;BME280;12420;42.676;23.262;2022-08-23T01:14:25;94086.69;;;19.84;100.00
12077;BME280;12420;42.676;23.262;2022-08-23T01:17:00;94040.56;;;19.44;100.00
12077;BME280;12420;42.676;23.262;2022-08-23T01:19:33;94096.41;;;19.71;100.00
12077;BME280;12420;42.676;23.262;2022-08-23T01:22:04;94094.63;;;19.66;100.00
12077;BME280;12420;42.676;23.262;2022-08-23T01:24:36;94092.72;;;19.69;100.00
12077;BME280;12420;42.676;23.262;2022-08-23T01:27:04;94086.53;;;19.61;100.00
12077;BME280;12420;42.676;23.262;2022-08-23T01:29:31;94109.56;;;19.69;100.00
12077;BME280;12420;42.676;23.262;2022-08-23T01:31:58;94096.56;;;19.64;100.00
12077;BME280;12420;42.676;23.262;2022-08-23T01:34:27;94098.63;;;19.73;100.00
12077;BME280;12420;42.676;23.262;2022-08-23T01:36:55;94092.50;;;19.77;100.00
12077;BME280;12420;42.676;23.262;2022-08-23T01:39:22;94094.94;;;19.70;100.00
12077;BME280;12420;42.676;23.262;2022-08-23T01:41:50;94091.56;;;19.62;100.00
12077;BME280;12420;42.676;23.262;2022-08-23T01:44:17;94086.81;;;19.65;100.00
12077;BME280;12420;42.676;23.262;2022-08-23T01:46:45;94089.34;;;19.61;100.00
12077;BME280;12420;42.676;23.262;2022-08-23T01:49:14;94044.97;;;19.26;100.00
12077;BME280;12420;42.676;23.262;2022-08-23T01:51:41;94090.28;;;19.53;100.00
12077;BME280;12420;42.676;23.262;2022-08-23T01:54:11;94096.88;;;19.68;100.00
12077;BME280;12420;42.676;23.262;2022-08-23T01:56:38;94095.81;;;19.73;100.00
12077;BME280;12420;42.676;23.262;2022-08-23T01:59:08;94091.44;;;19.60;100.00
12077;BME280;12420;42.676;23.262;2022-08-23T02:01:35;94103.78;;;19.45;100.00
12077;BME280;12420;42.676;23.262;2022-08-23T02:04:03;94054.44;;;19.21;100.00
12077;BME280;12420;42.676;23.262;2022-08-23T02:06:30;94066.63;;;19.35;100.00
12077;BME280;12420;42.676;23.262;2022-08-23T02:08:56;94076.91;;;19.42;100.00
12077;BME280;12420;42.676;23.262;2022-08-23T02:11:29;94082.81;;;19.46;100.00
12077;BME280;12420;42.676;23.262;2022-08-23T02:13:58;94073.53;;;19.44;100.00
12077;BME280;12420;42.676;23.262;2022-08-23T02:16:29;94029.72;;;19.07;100.00
12077;BME280;12420;42.676;23.262;2022-08-23T02:18:56;94030.97;;;18.95;100.00
12077;BME280;12420;42.676;23.262;2022-08-23T02:21:23;94025.28;;;18.83;100.00
12077;BME280;12420;42.676;23.262;2022-08-23T02:23:55;94053.22;;;19.02;100.00
12077;BME280;12420;42.676;23.262;2022-08-23T02:26:22;94072.16;;;19.23;100.00
12077;BME280;12420;42.676;23.262;2022-08-23T02:28:50;94066.94;;;19.29;100.00
12077;BME280;12420;42.676;23.262;2022-08-23T02:31:16;94070.91;;;19.36;100.00
12077;BME280;12420;42.676;23.262;2022-08-23T02:33:45;94059.25;;;19.30;100.00
12077;BME280;12420;42.676;23.262;2022-08-23T02:36:12;94063.03;;;19.44;100.00
12077;BME280;12420;42.676;23.262;2022-08-23T02:38:40;94038.31;;;19.31;100.00
12077;BME280;12420;42.676;23.262;2022-08-23T02:41:07;94060.91;;;19.55;100.00
12077;BME280;12420;42.676;23.262;2022-08-23T02:43:34;94062.63;;;19.60;100.00
12077;BME280;12420;42.676;23.262;2022-08-23T02:46:02;94034.97;;;19.44;100.00
12077;BME280;12420;42.676;23.262;2022-08-23T02:48:34;94043.53;;;19.46;100.00
12077;BME280;12420;42.676;23.262;2022-08-23T02:51:05;94071.59;;;19.68;100.00
12077;BME280;12420;42.676;23.262;2022-08-23T02:53:32;94070.25;;;19.69;100.00
12077;BME280;12420;42.676;23.262;2022-08-23T02:56:01;94065.81;;;19.66;100.00
12077;BME280;12420;42.676;23.262;2022-08-23T02:58:28;94056.22;;;19.69;100.00
12077;BME280;12420;42.676;23.262;2022-08-23T03:00:55;94064.78;;;19.71;100.00
12077;BME280;12420;42.676;23.262;2022-08-23T03:03:23;94056.28;;;19.59;100.00
12077;BME280;12420;42.676;23.262;2022-08-23T03:05:50;94013.94;;;19.34;100.00
12077;BME280;12420;42.676;23.262;2022-08-23T03:08:19;94043.56;;;19.58;100.00
12077;BME280;12420;42.676;23.262;2022-08-23T03:10:48;94054.91;;;19.70;100.00
12077;BME280;12420;42.676;23.262;2022-08-23T03:13:15;94054.91;;;19.70;100.00
12077;BME280;12420;42.676;23.262;2022-08-23T03:15:42;94063.72;;;19.76;100.00
12077;BME280;12420;42.676;23.262;2022-08-23T03:18:10;94067.25;;;19.77;100.00
12077;BME280;12420;42.676;23.262;2022-08-23T03:20:37;94065.44;;;19.81;100.00
12077;BME280;12420;42.676;23.262;2022-08-23T03:23:05;94063.78;;;19.88;100.00
12077;BME280;12420;42.676;23.262;2022-08-23T03:25:33;94036.28;;;19.65;100.00
12077;BME280;12420;42.676;23.262;2022-08-23T03:28:01;94070.13;;;19.88;100.00
12077;BME280;12420;42.676;23.262;2022-08-23T03:30:30;94059.97;;;19.83;100.00
12077;BME280;12420;42.676;23.262;2022-08-23T03:32:58;94078.56;;;19.67;100.00
12077;BME280;12420;42.676;23.262;2022-08-23T03:35:25;94099.72;;;19.58;100.00
12077;BME280;12420;42.676;23.262;2022-08-23T03:37:52;94054.81;;;19.37;100.00
12077;BME280;12420;42.676;23.262;2022-08-23T03:40:22;93943.91;;;18.61;100.00
12077;BME280;12420;42.676;23.262;2022-08-23T03:42:50;94073.09;;;19.38;100.00
12077;BME280;12420;42.676;23.262;2022-08-23T03:45:17;94068.34;;;19.40;100.00
12077;BME280;12420;42.676;23.262;2022-08-23T03:47:44;94086.59;;;19.51;100.00
12077;BME280;12420;42.676;23.262;2022-08-23T03:50:11;94098.44;;;19.49;100.00
12077;BME280;12420;42.676;23.262;2022-08-23T03:52:41;94068.16;;;19.26;100.00
12077;BME280;12420;42.676;23.262;2022-08-23T03:55:09;94111.13;;;19.50;100.00
12077;BME280;12420;42.676;23.262;2022-08-23T03:57:41;94115.16;;;19.47;100.00
12077;BME280;12420;42.676;23.262;2022-08-23T04:00:12;94134.06;;;19.47;100.00
12077;BME280;12420;42.676;23.262;2022-08-23T04:02:40;94141.19;;;19.38;100.00
12077;BME280;12420;42.676;23.262;2022-08-23T04:05:09;94137.38;;;19.34;100.00
12077;BME280;12420;42.676;23.262;2022-08-23T04:07:36;94107.69;;;18.99;100.00
12077;BME280;12420;42.676;23.262;2022-08-23T04:10:06;94159.69;;;19.32;100.00
12077;BME280;12420;42.676;23.262;2022-08-23T04:12:33;94144.22;;;19.21;100.00
12077;BME280;12420;42.676;23.262;2022-08-23T04:15:16;94142.59;;;19.18;100.00
12077;BME280;12420;42.676;23.262;2022-08-23T04:17:54;94180.16;;;19.44;100.00
12077;BME280;12420;42.676;23.262;2022-08-23T04:20:24;94122.09;;;19.15;100.00
12077;BME280;12420;42.676;23.262;2022-08-23T04:22:52;94168.28;;;19.55;100.00
12077;BME280;12420;42.676;23.262;2022-08-23T04:25:19;94178.69;;;19.43;100.00
12077;BME280;12420;42.676;23.262;2022-08-23T04:28:01;94161.78;;;19.52;100.00
12077;BME280;12420;42.676;23.262;2022-08-23T04:30:32;94157.22;;;19.26;100.00
12077;BME280;12420;42.676;23.262;2022-08-23T04:32:59;94142.34;;;19.14;100.00
12077;BME280;12420;42.676;23.262;2022-08-23T04:35:41;94165.44;;;19.34;100.00
12077;BME280;12420;42.676;23.262;2022-08-23T04:38:11;94134.53;;;19.02;100.00
12077;BME280;12420;42.676;23.262;2022-08-23T04:40:38;94166.94;;;19.25;100.00
12077;BME280;12420;42.676;23.262;2022-08-23T04:43:36;94113.06;;;18.85;100.00
12077;BME280;12420;42.676;23.262;2022-08-23T04:46:05;94160.47;;;19.13;100.00
12077;BME280;12420;42.676;23.262;2022-08-23T04:48:32;94156.66;;;19.08;100.00
12077;BME280;12420;42.676;23.262;2022-08-23T04:51:03;94153.97;;;19.20;100.00
12077;BME280;12420;42.676;23.262;2022-08-23T04:53:31;94156.63;;;19.18;100.00
12077;BME280;12420;42.676;23.262;2022-08-23T04:56:00;94173.19;;;19.14;100.00
12077;BME280;12420;42.676;23.262;2022-08-23T04:58:27;94168.75;;;19.11;100.00
12077;BME280;12420;42.676;23.262;2022-08-23T05:00:59;94170.38;;;19.14;100.00
12077;BME280;12420;42.676;23.262;2022-08-23T05:03:30;94173.31;;;19.16;100.00
12077;BME280;12420;42.676;23.262;2022-08-23T05:05:57;94173.47;;;19.18;100.00
12077;BME280;12420;42.676;23.262;2022-08-23T05:08:25;94173.16;;;19.23;100.00
12077;BME280;12420;42.676;23.262;2022-08-23T05:10:52;94182.31;;;19.24;100.00
12077;BME280;12420;42.676;23.262;2022-08-23T05:13:19;94187.91;;;19.24;100.00
12077;BME280;12420;42.676;23.262;2022-08-23T05:15:49;94182.56;;;19.28;100.00
12077;BME280;12420;42.676;23.262;2022-08-23T05:18:17;94187.94;;;19.14;100.00
12077;BME280;12420;42.676;23.262;2022-08-23T05:20:45;94171.13;;;19.14;100.00
12077;BME280;12420;42.676;23.262;2022-08-23T05:23:15;94203.38;;;19.35;100.00
12077;BME280;12420;42.676;23.262;2022-08-23T05:25:42;94172.72;;;19.17;100.00
12077;BME280;12420;42.676;23.262;2022-08-23T05:28:16;94196.81;;;19.51;100.00
12077;BME280;12420;42.676;23.262;2022-08-23T05:30:53;94204.19;;;19.57;100.00
12077;BME280;12420;42.676;23.262;2022-08-23T05:33:20;94197.94;;;19.68;100.00
12077;BME280;12420;42.676;23.262;2022-08-23T05:35:49;94206.66;;;19.93;100.00
12077;BME280;12420;42.676;23.262;2022-08-23T05:38:16;94202.94;;;20.01;100.00
12077;BME280;12420;42.676;23.262;2022-08-23T05:40:43;94161.91;;;19.64;100.00
12077;BME280;12420;42.676;23.262;2022-08-23T05:43:10;94203.47;;;19.87;100.00
12077;BME280;12420;42.676;23.262;2022-08-23T05:45:39;94203.47;;;19.87;100.00
12077;BME280;12420;42.676;23.262;2022-08-23T05:48:06;94204.53;;;19.82;100.00
12077;BME280;12420;42.676;23.262;2022-08-23T05:50:35;94196.75;;;19.71;100.00
12077;BME280;12420;42.676;23.262;2022-08-23T05:53:03;94208.50;;;20.10;100.00
12077;BME280;12420;42.676;23.262;2022-08-23T05:55:30;94215.38;;;20.19;100.00
12077;BME280;12420;42.676;23.262;2022-08-23T05:57:57;94208.75;;;20.36;100.00
12077;BME280;12420;42.676;23.262;2022-08-23T06:00:24;94216.19;;;20.31;100.00
12077;BME280;12420;42.676;23.262;2022-08-23T06:03:04;94217.66;;;20.54;100.00
12077;BME280;12420;42.676;23.262;2022-08-23T06:05:39;94221.25;;;20.45;100.00
12077;BME280;12420;42.676;23.262;2022-08-23T06:08:10;94195.13;;;20.21;100.00
12077;BME280;12420;42.676;23.262;2022-08-23T06:10:36;94235.66;;;20.60;100.00
12077;BME280;12420;42.676;23.262;2022-08-23T06:13:03;94197.59;;;20.26;100.00
12077;BME280;12420;42.676;23.262;2022-08-23T06:15:41;94235.72;;;20.51;100.00
12077;BME280;12420;42.676;23.262;2022-08-23T06:18:13;94237.50;;;20.56;100.00
12077;BME280;12420;42.676;23.262;2022-08-23T06:20:41;94233.19;;;20.55;100.00
12077;BME280;12420;42.676;23.262;2022-08-23T06:23:09;94235.56;;;20.70;100.00
12077;BME280;12420;42.676;23.262;2022-08-23T06:25:37;94250.44;;;20.83;100.00
12077;BME280;12420;42.676;23.262;2022-08-23T06:28:13;94244.78;;;21.04;100.00
12077;BME280;12420;42.676;23.262;2022-08-23T06:30:40;94248.00;;;21.22;100.00
12077;BME280;12420;42.676;23.262;2022-08-23T06:33:07;94244.94;;;21.30;100.00
12077;BME280;12420;42.676;23.262;2022-08-23T06:35:34;94212.75;;;21.33;100.00
12077;BME280;12420;42.676;23.262;2022-08-23T06:38:01;94225.66;;;21.48;100.00
12077;BME280;12420;42.676;23.262;2022-08-23T06:40:29;94253.34;;;21.75;100.00
12077;BME280;12420;42.676;23.262;2022-08-23T06:42:57;94267.81;;;22.16;100.00
12077;BME280;12420;42.676;23.262;2022-08-23T06:45:23;94220.66;;;21.93;100.00
12077;BME280;12420;42.676;23.262;2022-08-23T06:47:53;94259.22;;;22.26;100.00
12077;BME280;12420;42.676;23.262;2022-08-23T06:50:20;94257.97;;;22.41;100.00
12077;BME280;12420;42.676;23.262;2022-08-23T06:52:47;94260.53;;;22.48;100.00
12077;BME280;12420;42.676;23.262;2022-08-23T06:55:14;94245.97;;;22.40;100.00
12077;BME280;12420;42.676;23.262;2022-08-23T06:57:43;94239.88;;;22.20;100.00
12077;BME280;12420;42.676;23.262;2022-08-23T07:00:11;94263.34;;;22.48;100.00
12077;BME280;12420;42.676;23.262;2022-08-23T07:02:37;94262.88;;;22.52;100.00
12077;BME280;12420;42.676;23.262;2022-08-23T07:05:05;94268.59;;;22.54;100.00
12077;BME280;12420;42.676;23.262;2022-08-23T07:07:31;94270.94;;;22.58;100.00
12077;BME280;12420;42.676;23.262;2022-08-23T07:09:58;94238.16;;;22.27;100.00
12077;BME280;12420;42.676;23.262;2022-08-23T07:12:25;94257.50;;;22.32;100.00
12077;BME280;12420;42.676;23.262;2022-08-23T07:14:59;94268.78;;;22.32;100.00
12077;BME280;12420;42.676;23.262;2022-08-23T07:17:28;94266.16;;;22.48;100.00
12077;BME280;12420;42.676;23.262;2022-08-23T07:19:55;94257.84;;;22.39;100.00
12077;BME280;12420;42.676;23.262;2022-08-23T07:22:22;94265.59;;;22.38;100.00
12077;BME280;12420;42.676;23.262;2022-08-23T07:24:52;94272.44;;;22.47;100.00
12077;BME280;12420;42.676;23.262;2022-08-23T07:27:19;94268.13;;;22.58;100.00
12077;BME280;12420;42.676;23.262;2022-08-23T07:29:46;94263.94;;;22.59;100.00
12077;BME280;12420;42.676;23.262;2022-08-23T07:32:15;94268.97;;;22.60;100.00
12077;BME280;12420;42.676;23.262;2022-08-23T07:34:42;94280.13;;;22.58;100.00
12077;BME280;12420;42.676;23.262;2022-08-23T07:37:09;94271.22;;;22.50;100.00
12077;BME280;12420;42.676;23.262;2022-08-23T07:39:36;94274.09;;;22.64;100.00
12077;BME280;12420;42.676;23.262;2022-08-23T07:42:04;94244.72;;;22.43;100.00
12077;BME280;12420;42.676;23.262;2022-08-23T07:44:31;94279.56;;;22.85;100.00
12077;BME280;12420;42.676;23.262;2022-08-23T07:47:01;94280.44;;;22.76;100.00
12077;BME280;12420;42.676;23.262;2022-08-23T07:49:29;94281.34;;;23.04;100.00
12077;BME280;12420;42.676;23.262;2022-08-23T07:51:56;94280.47;;;23.13;100.00
12077;BME280;12420;42.676;23.262;2022-08-23T07:54:27;94271.69;;;22.95;100.00
12077;BME280;12420;42.676;23.262;2022-08-23T07:56:56;94278.78;;;22.96;100.00
12077;BME280;12420;42.676;23.262;2022-08-23T07:59:23;94250.22;;;22.90;100.00
12077;BME280;12420;42.676;23.262;2022-08-23T08:01:50;94283.00;;;23.21;100.00
12077;BME280;12420;42.676;23.262;2022-08-23T08:04:19;94293.19;;;23.26;100.00
12077;BME280;12420;42.676;23.262;2022-08-23T08:06:50;94271.81;;;22.98;100.00
12077;BME280;12420;42.676;23.262;2022-08-23T08:09:17;94297.34;;;23.25;100.00
12077;BME280;12420;42.676;23.262;2022-08-23T08:11:46;94259.56;;;23.18;100.00
12077;BME280;12420;42.676;23.262;2022-08-23T08:14:14;94295.59;;;23.57;100.00
12077;BME280;12420;42.676;23.262;2022-08-23T08:16:43;94305.81;;;23.76;100.00
12077;BME280;12420;42.676;23.262;2022-08-23T08:19:13;94309.63;;;23.95;100.00
12077;BME280;12420;42.676;23.262;2022-08-23T08:21:41;94309.31;;;24.02;100.00
12077;BME280;12420;42.676;23.262;2022-08-23T08:24:12;94298.75;;;24.03;100.00
12077;BME280;12420;42.676;23.262;2022-08-23T08:26:41;94302.00;;;24.11;100.00
12077;BME280;12420;42.676;23.262;2022-08-23T08:29:09;94310.06;;;24.31;100.00
12077;BME280;12420;42.676;23.262;2022-08-23T08:31:36;94318.06;;;24.48;100.00
12077;BME280;12420;42.676;23.262;2022-08-23T08:34:04;94309.69;;;24.50;100.00
12077;BME280;12420;42.676;23.262;2022-08-23T08:36:36;94272.66;;;24.32;100.00
12077;BME280;12420;42.676;23.262;2022-08-23T08:39:05;94320.22;;;24.77;100.00
12077;BME280;12420;42.676;23.262;2022-08-23T08:41:45;94309.06;;;24.65;100.00
12077;BME280;12420;42.676;23.262;2022-08-23T08:44:23;94308.59;;;24.43;100.00
12077;BME280;12420;42.676;23.262;2022-08-23T08:46:54;94311.84;;;24.38;100.00
12077;BME280;12420;42.676;23.262;2022-08-23T08:49:30;94314.03;;;24.39;100.00
12077;BME280;12420;42.676;23.262;2022-08-23T08:52:02;94316.03;;;24.37;100.00
12077;BME280;12420;42.676;23.262;2022-08-23T08:54:33;94298.34;;;24.22;100.00
12077;BME280;12420;42.676;23.262;2022-08-23T08:57:05;94307.97;;;24.31;100.00
12077;BME280;12420;42.676;23.262;2022-08-23T08:59:45;94298.75;;;24.31;100.00
12077;BME280;12420;42.676;23.262;2022-08-23T09:02:16;94302.34;;;24.45;100.00
12077;BME280;12420;42.676;23.262;2022-08-23T09:04:43;94291.94;;;24.36;100.00
12077;BME280;12420;42.676;23.262;2022-08-23T09:07:17;94265.13;;;24.23;100.00
12077;BME280;12420;42.676;23.262;2022-08-23T09:10:15;94242.94;;;24.31;100.00
12077;BME280;12420;42.676;23.262;2022-08-23T09:13:00;94272.78;;;24.62;100.00
12077;BME280;12420;42.676;23.262;2022-08-23T09:15:39;94271.81;;;24.71;100.00
12077;BME280;12420;42.676;23.262;2022-08-23T09:18:09;94271.78;;;24.85;100.00
12077;BME280;12420;42.676;23.262;2022-08-23T09:20:39;94268.63;;;24.92;100.00
12077;BME280;12420;42.676;23.262;2022-08-23T09:23:08;94251.88;;;25.12;100.00
12077;BME280;12420;42.676;23.262;2022-08-23T09:25:37;94257.19;;;25.34;100.00
12077;BME280;12420;42.676;23.262;2022-08-23T09:28:05;94272.66;;;25.47;100.00
12077;BME280;12420;42.676;23.262;2022-08-23T09:30:57;94269.78;;;25.31;100.00
12077;BME280;12420;42.676;23.262;2022-08-23T09:33:36;94256.09;;;25.11;100.00
12077;BME280;12420;42.676;23.262;2022-08-23T09:36:14;94263.63;;;25.21;100.00
12077;BME280;12420;42.676;23.262;2022-08-23T09:38:52;94251.38;;;25.16;100.00
12077;BME280;12420;42.676;23.262;2022-08-23T09:41:22;94250.94;;;25.22;100.00
12077;BME280;12420;42.676;23.262;2022-08-23T09:43:52;94277.50;;;25.44;100.00
12077;BME280;12420;42.676;23.262;2022-08-23T09:46:25;94279.28;;;25.22;100.00
12077;BME280;12420;42.676;23.262;2022-08-23T09:48:56;94278.63;;;25.23;100.00
12077;BME280;12420;42.676;23.262;2022-08-23T09:51:29;94281.28;;;25.19;100.00
12077;BME280;12420;42.676;23.262;2022-08-23T09:54:09;94280.81;;;25.25;100.00
12077;BME280;12420;42.676;23.262;2022-08-23T09:56:50;94282.69;;;25.34;100.00
12077;BME280;12420;42.676;23.262;2022-08-23T09:59:31;94281.94;;;25.33;100.00
12077;BME280;12420;42.676;23.262;2022-08-23T10:02:00;94278.28;;;25.31;100.00
12077;BME280;12420;42.676;23.262;2022-08-23T10:04:39;94279.56;;;25.28;100.00
12077;BME280;12420;42.676;23.262;2022-08-23T10:07:23;94268.00;;;25.24;100.00
12077;BME280;12420;42.676;23.262;2022-08-23T10:09:53;94276.84;;;25.16;100.00
12077;BME280;12420;42.676;23.262;2022-08-23T10:12:21;94269.19;;;25.19;100.00
12077;BME280;12420;42.676;23.262;2022-08-23T10:14:55;94273.09;;;25.11;100.00
12077;BME280;12420;42.676;23.262;2022-08-23T10:17:31;94272.03;;;25.19;100.00
12077;BME280;12420;42.676;23.262;2022-08-23T10:20:15;94279.59;;;25.44;100.00
12077;BME280;12420;42.676;23.262;2022-08-23T10:22:57;94270.25;;;25.41;100.00
12077;BME280;12420;42.676;23.262;2022-08-23T10:25:37;94291.31;;;25.52;100.00
12077;BME280;12420;42.676;23.262;2022-08-23T10:28:12;94265.38;;;25.73;100.00
12077;BME280;12420;42.676;23.262;2022-08-23T10:31:06;94248.25;;;25.55;100.00
12077;BME280;12420;42.676;23.262;2022-08-23T10:33:41;94275.19;;;25.86;100.00
12077;BME280;12420;42.676;23.262;2022-08-23T10:36:14;94179.13;;;25.31;100.00
12077;BME280;12420;42.676;23.262;2022-08-23T10:38:45;94255.13;;;25.82;100.00
12077;BME280;12420;42.676;23.262;2022-08-23T10:41:37;94270.78;;;25.83;100.00
12077;BME280;12420;42.676;23.262;2022-08-23T10:44:21;94257.09;;;25.93;100.00
12077;BME280;12420;42.676;23.262;2022-08-23T10:47:00;94262.13;;;26.11;100.00
12077;BME280;12420;42.676;23.262;2022-08-23T10:49:33;94259.81;;;26.07;100.00
12077;BME280;12420;42.676;23.262;2022-08-23T10:52:05;94265.31;;;26.19;100.00
12077;BME280;12420;42.676;23.262;2022-08-23T10:54:38;94253.84;;;26.17;100.00
12077;BME280;12420;42.676;23.262;2022-08-23T10:57:14;94254.19;;;26.41;100.00
12077;BME280;12420;42.676;23.262;2022-08-23T10:59:43;94257.44;;;26.17;100.00
12077;BME280;12420;42.676;23.262;2022-08-23T11:02:21;94226.78;;;26.14;100.00
12077;BME280;12420;42.676;23.262;2022-08-23T11:04:53;94226.41;;;26.22;100.00
12077;BME280;12420;42.676;23.262;2022-08-23T11:07:27;94255.63;;;26.58;100.00
12077;BME280;12420;42.676;23.262;2022-08-23T11:10:08;94245.91;;;26.63;100.00
12077;BME280;12420;42.676;23.262;2022-08-23T11:12:53;94140.91;;;25.80;100.00
12077;BME280;12420;42.676;23.262;2022-08-23T11:15:37;94247.13;;;26.58;100.00
12077;BME280;12420;42.676;23.262;2022-08-23T11:18:45;94258.56;;;26.60;100.00
12077;BME280;12420;42.676;23.262;2022-08-23T11:21:46;94254.72;;;26.53;100.00
12077;BME280;12420;42.676;23.262;2022-08-23T11:24:32;94242.53;;;26.67;100.00
12077;BME280;12420;42.676;23.262;2022-08-23T11:27:06;94242.38;;;26.80;100.00
12077;BME280;12420;42.676;23.262;2022-08-23T11:29:37;94250.97;;;26.65;100.00
12077;BME280;12420;42.676;23.262;2022-08-23T11:32:22;94258.50;;;26.76;100.00
12077;BME280;12420;42.676;23.262;2022-08-23T11:35:01;94234.16;;;26.71;100.00
12077;BME280;12420;42.676;23.262;2022-08-23T11:37:55;94204.41;;;26.54;100.00
12077;BME280;12420;42.676;23.262;2022-08-23T11:40:55;94237.41;;;26.63;100.00
12077;BME280;12420;42.676;23.262;2022-08-23T11:43:34;94229.56;;;26.79;100.00
12077;BME280;12420;42.676;23.262;2022-08-23T11:46:25;94232.00;;;26.87;100.00
12077;BME280;12420;42.676;23.262;2022-08-23T11:49:01;94233.25;;;27.00;100.00
12077;BME280;12420;42.676;23.262;2022-08-23T11:51:51;94229.59;;;26.97;100.00
12077;BME280;12420;42.676;23.262;2022-08-23T11:54:36;94227.25;;;27.10;100.00
12077;BME280;12420;42.676;23.262;2022-08-23T11:57:17;94240.88;;;27.13;100.00
12077;BME280;12420;42.676;23.262;2022-08-23T12:00:04;94239.69;;;27.18;100.00
12077;BME280;12420;42.676;23.262;2022-08-23T12:02:51;94233.97;;;27.36;100.00
12077;BME280;12420;42.676;23.262;2022-08-23T12:05:40;94234.03;;;27.56;100.00
12077;BME280;12420;42.676;23.262;2022-08-23T12:11:15;94231.78;;;27.35;89.38
12077;BME280;12420;42.676;23.262;2022-08-23T12:13:52;94216.38;;;27.22;79.46
12077;BME280;12420;42.676;23.262;2022-08-23T12:16:36;94228.78;;;26.95;75.98
12077;BME280;12420;42.676;23.262;2022-08-23T12:19:09;94239.97;;;26.91;75.21
12077;BME280;12420;42.676;23.262;2022-08-23T12:21:46;94212.28;;;27.09;73.51
12077;BME280;12420;42.676;23.262;2022-08-23T12:24:23;94197.03;;;27.00;69.56
12077;BME280;12420;42.676;23.262;2022-08-23T12:27:09;94225.22;;;27.30;71.32
12077;BME280;12420;42.676;23.262;2022-08-23T12:30:01;94209.28;;;27.41;72.51
12077;BME280;12420;42.676;23.262;2022-08-23T12:32:37;94212.28;;;27.45;70.33
12077;BME280;12420;42.676;23.262;2022-08-23T12:35:19;94221.34;;;27.59;69.25
12077;BME280;12420;42.676;23.262;2022-08-23T12:37:57;94219.75;;;27.54;69.54
12077;BME280;12420;42.676;23.262;2022-08-23T12:40:31;94216.50;;;27.44;69.27
12077;BME280;12420;42.676;23.262;2022-08-23T12:43:15;94196.91;;;27.52;69.42
12077;BME280;12420;42.676;23.262;2022-08-23T12:46:32;94221.56;;;27.45;72.01
12077;BME280;12420;42.676;23.262;2022-08-23T12:49:00;94201.53;;;27.23;73.04
12077;BME280;12420;42.676;23.262;2022-08-23T12:51:30;94178.69;;;27.03;72.84
12077;BME280;12420;42.676;23.262;2022-08-23T12:54:17;94213.47;;;27.20;74.35
12077;BME280;12420;42.676;23.262;2022-08-23T12:56:48;94191.38;;;26.82;72.89
12077;BME280;12420;42.676;23.262;2022-08-23T12:59:41;94210.97;;;26.94;70.87
12077;BME280;12420;42.676;23.262;2022-08-23T13:02:19;94217.56;;;26.99;71.61
12077;BME280;12420;42.676;23.262;2022-08-23T13:04:50;94169.13;;;26.59;71.18
12077;BME280;12420;42.676;23.262;2022-08-23T13:07:19;94203.44;;;26.65;74.57
12077;BME280;12420;42.676;23.262;2022-08-23T13:09:48;94208.78;;;26.75;72.84